Terminal Aerodrome Forecast
Issued by NWS Green Bay, WI

Home | Current Version | Previous Version | Graphics & Text | Print | Product List | Glossary On
Versions: 1 2 3 4 5 6 7 8 9 10 11 12 13 14 15 16 17 18 19 20 21 22 23 24 25 26 27 28 29 30 31 32 33 34
000
FTUS43 KGRB 220500
TAFGRB
TAF
KGRB 220525Z 2206/2306 17006KT P6SM SKC
     FM220900 17005KT 5SM BR SCT050 WS015/21030KT
     FM221500 19014G22KT P6SM SCT045 PROB30 2220/2224 3SM +TSRA
      OVC035CB
     FM230000 29013G22KT P6SM SCT050 BKN100
     FM230500 33007KT P6SM SKC=

USA.gov is the U.S. government's official web portal to all federal, state and local government web resources and services.